Airfield :
LOGIN :

Register | Disclaimer

   EN    FR    IT 

 










Legend :    VFR   Marginal VFR   IFR   Intensive IFR   Very Intensive IFR
Visi :
Ceiling :
>= 8 km
>= 3000ft
5 to 8 km
1000 to 3000 ft
1500m to 5 km
500 to 1000 ft
800 to 1500m
200 to 500 ft
< 800m
< 200 ft
Symbols :   Thunderstorms  Fog  Heavy snow  Heavy precipitations  Wind > 20 kt
SIGMETs :     Misc.  Thunderstorms  Icing  Turbulence  Mountain Waves  Volcanic Ashes






- Airport Elevation : 1906 ft
- IATA code : INN


LOWI - Innsbruck

CURRENT METAR :
  • 301120Z VRB02KT 9999 SCT100 02/M06 Q1019 NOSIG

EXPIRED METARs :
  • 301050Z VRB02KT 9999 SCT100 01/M05 Q1020 NOSIG
  • 301020Z VRB02KT 9999 SCT100 00/M06 Q1020 NOSIG
  • 300950Z VRB01KT 9999 FEW110 M01/M05 Q1021 NOSIG
  • 300920Z VRB01KT 9999 FEW110 M03/M05 Q1021 NOSIG
  • 300850Z VRB02KT 9999 FEW110 M04/M06 Q1022 NOSIG

TAF TAF LOWI
Valid from the 30 at 06:00 until the 31 at 06:00 UTC


300515Z 3006/3106 09005KT CAVOK TX04/3015Z TNM06/3006Z
TEMPO 3012/3016 27015G30KT
TEMPO 3016/3103 27015G30KT 3000 SHSNRA SCT005 BKN012
TEMPO 3103/3106 BKN008



MET'MAP, your aeronautical weather chart ! - Copyright ORBIFLY December 2007 - Disclaimer

ORBIFLY MET'MAP TEAM :

Programming & Development : Alexandra Zaïnal
Original concept : Baudouin d'Aumeries
Technical & hardware support : Manuel Goepfert
Assistance : Marc-Olivier Méhu




SOURCES & CREDITS :

   NOAA